Time;durP1;ratioP1;P1;durP2;ratioP2;P2;SDS_P1;SDS_P2;PMS_P1;PMS_P2;Temp;Humidity;BMP_temperature;BMP_pressure;BME280_temperature;BME280_humidity;BME280_pressure;Samples;Min_cycle;Max_cycle;Signal;HPM_P1;HPM_P2
2021/05/07 17:17:25;;;;;;;3.83;1.50;;;;;;;;;;5060918;27;20833;-76
2021/05/07 17:19:51;;;;;;;2.45;1.35;;;;;;;;;;5061249;27;20032;-76
2021/05/07 17:22:17;;;;;;;1.50;1.20;;;;;;;;;;5061027;27;20660;-75
2021/05/07 17:24:43;;;;;;;2.33;1.33;;;;;;;;;;5060926;27;20027;-76
2021/05/07 17:27:09;;;;;;;1.88;1.17;;;;;;;;;;5063268;27;20051;-76
2021/05/07 17:29:35;;;;;;;3.80;1.20;;;;;;;;;;5060478;27;20033;-77
2021/05/07 17:32:01;;;;;;;1.52;1.20;;;;;;;;;;5059959;28;20081;-76
2021/05/07 17:34:27;;;;;;;1.98;1.27;;;17.60;57.00;;;;;;5060946;27;20501;-76
2021/05/07 17:36:53;;;;;;;1.35;1.10;;;19.60;50.50;;;;;;5059432;28;20033;-76
2021/05/07 17:39:18;;;;;;;1.38;0.98;;;20.30;49.80;;;;;;5062224;28;20040;-76
2021/05/07 17:41:44;;;;;;;3.50;1.20;;;20.40;49.50;;;;;;5079470;28;20215;-76
2021/05/07 17:44:10;;;;;;;2.55;1.10;;;19.80;50.30;;;;;;5080052;28;20033;-76
2021/05/07 17:46:38;;;;;;;5.78;1.63;;;20.10;49.90;;;;;;5081926;28;20029;-76
2021/05/07 17:49:04;;;;;;;2.00;1.60;;;19.80;49.60;;;;;;5079885;28;20025;-76
2021/05/07 17:51:30;;;;;;;1.90;1.40;;;19.10;53.30;;;;;;5080023;28;20052;-76
2021/05/07 17:53:56;;;;;;;1.58;1.17;;;18.10;54.30;;;;;;5081040;28;20063;-76
2021/05/07 17:56:22;;;;;;;1.52;1.30;;;18.10;53.70;;;;;;5080777;28;20021;-76
2021/05/07 17:58:47;;;;;;;2.22;1.60;;;18.20;54.40;;;;;;5062643;28;20041;-76
2021/05/07 18:01:13;;;;;;;2.85;1.38;;;18.10;54.90;;;;;;5045472;28;20036;-76
2021/05/07 18:03:39;;;;;;;2.13;1.33;;;17.80;55.10;;;;;;5043090;28;20029;-76
2021/05/07 18:06:04;;;;;;;2.97;1.20;;;17.80;54.50;;;;;;5070717;28;20064;-76
2021/05/07 18:08:30;;;;;;;2.58;1.50;;;17.70;55.40;;;;;;5081042;28;20036;-76
2021/05/07 18:10:56;;;;;;;1.90;1.38;;;17.80;55.40;;;;;;5078205;28;20028;-76
2021/05/07 18:13:22;;;;;;;3.60;1.60;;;17.60;55.00;;;;;;5080033;28;20036;-76
2021/05/07 18:15:47;;;;;;;4.35;1.70;;;17.60;54.80;;;;;;5079531;27;20040;-76
2021/05/07 18:18:13;;;;;;;2.85;1.58;;;17.30;55.60;;;;;;5063912;28;20029;-76
2021/05/07 18:20:39;;;;;;;2.80;1.40;;;16.90;56.60;;;;;;5058737;28;20108;-76
2021/05/07 18:23:05;;;;;;;2.92;2.00;;;15.90;58.90;;;;;;5060450;28;20552;-75
2021/05/07 18:25:30;;;;;;;3.50;1.95;;;15.10;61.10;;;;;;5060041;28;20048;-74
2021/05/07 18:27:57;;;;;;;5.45;2.03;;;14.30;63.70;;;;;;5051682;28;20025;-75
2021/05/07 18:30:25;;;;;;;2.85;1.77;;;;;;;;;;5039244;28;20053;-75
2021/05/07 18:32:51;;;;;;;2.20;1.80;;;;;;;;;;5026615;28;20029;-74
2021/05/07 18:35:20;;;;;;;6.20;1.80;;;;;;;;;;5041412;27;20029;-75
2021/05/07 18:37:47;;;;;;;3.03;2.28;;;;;;;;;;5046271;28;20025;-76
2021/05/07 18:40:14;;;;;;;2.50;2.00;;;;;;;;;;5045810;28;20021;-76
2021/05/07 18:42:40;;;;;;;3.20;1.75;;;;;;;;;;5045218;28;20040;-76
2021/05/07 18:45:08;;;;;;;2.33;1.52;;;;;;;;;;5046891;28;20510;-75
2021/05/07 18:47:34;;;;;;;23.50;11.52;;;;;;;;;;5046762;28;20392;-74
2021/05/07 18:50:00;;;;;;;10.70;5.65;;;;;;;;;;5046745;28;20101;-75
2021/05/07 18:52:28;;;;;;;8.93;4.30;;;;;;;;;;5046316;28;20472;-75
2021/05/07 18:54:57;;;;;;;4.45;2.33;;;;;;;;;;5059315;28;20017;-74
2021/05/07 18:57:23;;;;;;;5.75;3.20;;;;;;;;;;5066396;28;20040;-75
2021/05/07 18:59:49;;;;;;;8.50;4.47;;;;;;;;;;5062228;27;20028;-75
2021/05/07 19:02:15;;;;;;;8.20;4.97;;;;;;;;;;5046779;27;20017;-75
2021/05/07 19:04:41;;;;;;;6.65;3.15;;;;;;;;;;5045377;28;20050;-75
2021/05/07 19:07:08;;;;;;;7.07;3.15;;;;;;;;;;5045954;28;20058;-76
2021/05/07 19:09:34;;;;;;;5.68;3.42;;;;;;;;;;5045018;28;20093;-76
2021/05/07 19:12:00;;;;;;;7.15;3.50;;;;;;;;;;5045932;28;20039;-76
2021/05/07 19:14:28;;;;;;;4.65;2.72;;;;;;;;;;5041461;28;20104;-76
2021/05/07 19:16:56;;;;;;;3.60;2.28;;;;;;;;;;5045087;28;20604;-74
2021/05/07 19:19:24;;;;;;;6.63;3.08;;;;;;;;;;5045926;28;20021;-76
2021/05/07 19:21:50;;;;;;;4.22;2.53;;;;;;;;;;5046286;28;20056;-73
2021/05/07 19:24:16;;;;;;;3.72;2.47;;;;;;;;;;5046308;28;20025;-73
2021/05/07 19:26:42;;;;;;;3.28;2.40;;;;;;;;;;5045781;28;20036;-73
2021/05/07 19:29:08;;;;;;;6.15;3.00;;;;;;;;;;5046067;28;20029;-73
2021/05/07 19:31:34;;;;;;;4.88;3.17;;;;;;;;;;5028957;28;20021;-73
2021/05/07 19:34:00;;;;;;;5.32;2.95;;;;;;;;;;5026834;23;20048;-76
2021/05/07 19:36:26;;;;;;;4.05;3.05;;;;;;;;;;5003713;28;20046;-77
2021/05/07 19:38:53;;;;;;;4.80;3.00;;;;;;;;;;4993184;28;20072;-77
2021/05/07 19:41:19;;;;;;;3.88;2.90;;;;;;;;;;4995813;28;20022;-77
2021/05/07 19:43:45;;;;;;;4.72;3.28;;;;;;;;;;4998299;28;20046;-79
2021/05/07 19:46:12;;;;;;;5.25;3.55;;;;;;;;;;4998108;28;20014;-77
2021/05/07 19:48:38;;;;;;;5.97;3.95;;;;;;;;;;4988124;28;20524;-77
2021/05/07 19:51:05;;;;;;;6.90;3.50;;;;;;;;;;5002705;28;20102;-77
2021/05/07 19:53:31;;;;;;;5.20;3.28;;;;;;;;;;5006816;28;20034;-78
2021/05/07 19:55:58;;;;;;;4.82;3.45;;;;;;;;;;4989385;28;20030;-77
2021/05/07 19:58:24;;;;;;;7.53;4.28;;;;;;;;;;5004612;28;20026;-77
2021/05/07 20:00:50;;;;;;;4.88;3.95;;;;;;;;;;4988058;28;20030;-78
2021/05/07 20:03:16;;;;;;;6.40;3.67;;;;;;;;;;5006200;28;20742;-78
2021/05/07 20:05:42;;;;;;;7.57;4.20;;;;;;;;;;5005547;28;20022;-78
2021/05/07 20:08:10;;;;;;;7.70;4.88;;;;;;;;;;5006020;28;20037;-78
2021/05/07 20:10:37;;;;;;;7.13;5.50;;;;;;;;;;5004238;28;20034;-78
2021/05/07 20:13:03;;;;;;;6.18;4.53;;;;;;;;;;5003837;28;20052;-78
2021/05/07 20:15:29;;;;;;;6.82;3.30;;;;;;;;;;5002583;28;20442;-78
2021/05/07 20:17:55;;;;;;;4.32;3.30;;;;;;;;;;4996324;28;20132;-78
2021/05/07 20:20:22;;;;;;;3.85;2.70;;;;;;;;;;4985199;28;20121;-79
2021/05/07 20:22:48;;;;;;;4.43;3.28;;;;;;;;;;4986475;28;20475;-77
2021/05/07 20:25:14;;;;;;;7.10;3.50;;;;;;;;;;4985533;28;20033;-78
2021/05/07 20:27:41;;;;;;;3.92;3.20;;;;;;;;;;4984293;28;20442;-78
2021/05/07 20:30:09;;;;;;;5.72;3.65;;;;;;;;;;4989971;28;20030;-78
2021/05/07 20:32:35;;;;;;;4.95;3.55;;;;;;;;;;5005192;28;20018;-78
2021/05/07 20:35:06;;;;;;;5.97;4.30;;;;;;;;;;5006562;28;20034;-77
2021/05/07 20:37:32;;;;;;;8.73;4.97;;;;;;;;;;5006508;28;20033;-79
2021/05/07 20:39:59;;;;;;;8.32;5.25;;;;;;;;;;5004228;28;20131;-77
2021/05/07 20:42:26;;;;;;;7.80;5.00;;;;;;;;;;5005801;28;20074;-78
2021/05/07 20:44:52;;;;;;;9.20;5.07;;;;;;;;;;4997004;28;20674;-78
2021/05/07 20:47:18;;;;;;;6.57;4.68;;;;;;;;;;4984948;28;20031;-79
2021/05/07 20:49:44;;;;;;;5.78;4.35;;;;;;;;;;4988181;28;20105;-78
2021/05/07 20:52:10;;;;;;;5.68;4.20;;;;;;;;;;4988774;28;20115;-79
2021/05/07 20:54:36;;;;;;;5.88;4.30;;;;;;;;;;4988343;28;20030;-77
2021/05/07 20:57:02;;;;;;;5.65;3.97;;;;;;;;;;5006989;28;20034;-78
2021/05/07 20:59:28;;;;;;;6.85;3.88;;;;;;;;;;5006139;28;20033;-79
2021/05/07 21:01:54;;;;;;;6.18;4.35;;;;;;;;;;5006861;28;20030;-77
2021/05/07 21:04:21;;;;;;;6.50;4.55;;;;;;;;;;5005432;28;20022;-77
2021/05/07 21:06:47;;;;;;;6.45;4.28;;;;;;;;;;5005103;28;20018;-77
2021/05/07 21:09:13;;;;;;;5.78;3.92;;;;;;;;;;5004585;28;20087;-78
2021/05/07 21:11:40;;;;;;;7.63;5.28;;;;;;;;;;4986534;28;20034;-76
2021/05/07 21:14:06;;;;;;;10.18;5.05;;;;;;;;;;4985443;28;20022;-77
2021/05/07 21:16:32;;;;;;;7.00;4.97;;;;;;;;;;4985664;28;20027;-76
2021/05/07 21:19:00;;;;;;;9.73;6.45;;;;;;;;;;4983877;28;20034;-77
2021/05/07 21:21:26;;;;;;;10.32;5.43;;;;;;;;;;4984927;28;20027;-76
2021/05/07 21:23:52;;;;;;;10.95;5.60;;;;;;;;;;4985333;28;20025;-77
2021/05/07 21:26:18;;;;;;;8.13;4.75;;;;;;;;;;4985258;28;20038;-77
2021/05/07 21:28:44;;;;;;;6.47;4.47;;;;;;;;;;4985668;28;20031;-77
2021/05/07 21:31:10;;;;;;;5.47;3.72;;;;;;;;;;4997526;28;20030;-78
2021/05/07 21:33:36;;;;;;;6.00;3.60;;;;;;;;;;4987377;28;20034;-77
2021/05/07 21:36:02;;;;;;;6.43;3.60;;;;;;;;;;5005906;28;20025;-77
2021/05/07 21:38:28;;;;;;;5.88;3.92;;;;;;;;;;5003698;28;20030;-78
2021/05/07 21:40:54;;;;;;;6.53;4.10;;;;;;;;;;5003601;28;20037;-77
2021/05/07 21:43:21;;;;;;;6.88;3.90;;;;;;;;;;5004820;28;20022;-78
2021/05/07 21:45:47;;;;;;;6.10;3.90;;;;;;;;;;5004367;28;20061;-76
2021/05/07 21:48:13;;;;;;;6.95;3.55;;;;;;;;;;4987509;28;20030;-76
2021/05/07 21:50:39;;;;;;;8.18;4.05;;;;;;;;;;5002546;28;20022;-77
2021/05/07 21:53:05;;;;;;;7.80;4.00;;;;;;;;;;5004725;28;20040;-78
2021/05/07 21:55:31;;;;;;;5.22;3.90;;;;;;;;;;5004748;28;20042;-75
2021/05/07 21:58:08;;;;;;;6.40;4.07;;;;;;;;;;5003701;28;20080;-77
2021/05/07 22:00:34;;;;;;;4.18;3.65;;;;;;;;;;5003987;28;20019;-78
2021/05/07 22:03:00;;;;;;;6.10;3.95;;;;;;;;;;5006789;28;20086;-78
2021/05/07 22:05:26;;;;;;;5.40;3.45;;;;;;;;;;5007688;28;20117;-76
2021/05/07 22:07:53;;;;;;;8.00;4.47;;;;;;;;;;5003125;28;20397;-77
2021/05/07 22:10:19;;;;;;;6.15;4.53;;;;;;;;;;4988481;28;20026;-76
2021/05/07 22:12:45;;;;;;;6.75;4.40;;;;;;;;;;4988119;28;20494;-77
2021/05/07 22:15:12;;;;;;;5.40;4.03;;;;;;;;;;4988680;28;20081;-77
2021/05/07 22:17:38;;;;;;;7.22;4.63;;;;;;;;;;5003792;28;20030;-76
2021/05/07 22:20:08;;;;;;;7.20;4.65;;;;;;;;;;5007494;28;20078;-76
2021/05/07 22:22:34;;;;;;;6.90;4.65;;;;;;;;;;5008087;28;20022;-78
2021/05/07 22:25:01;;;;;;;7.00;4.88;;;;;;;;;;5007532;28;20041;-77
2021/05/07 22:27:29;;;;;;;8.73;4.50;;;;;;;;;;5006080;28;20026;-77
2021/05/07 22:29:55;;;;;;;7.55;4.80;;;;;;;;;;5007189;28;20022;-77
2021/05/07 22:32:21;;;;;;;6.38;4.40;;;;;;;;;;5007345;28;20057;-78
2021/05/07 22:34:47;;;;;;;9.55;4.40;;;;;;;;;;5007197;28;20114;-78
2021/05/07 22:37:13;;;;;;;5.30;4.30;;;;;;;;;;4990900;28;20066;-77
2021/05/07 22:39:39;;;;;;;7.85;4.95;;;;;;;;;;4989580;28;20030;-77
2021/05/07 22:42:07;;;;;;;5.65;4.28;;;;;;;;;;4989280;28;20127;-77
2021/05/07 22:44:34;;;;;;;7.45;4.45;;;;;;;;;;4986880;28;20034;-76
2021/05/07 22:47:00;;;;;;;6.93;4.68;;;;;;;;;;4987414;28;20374;-76
2021/05/07 22:49:26;;;;;;;6.30;4.88;;;;;;;;;;4986703;28;20509;-76
2021/05/07 22:51:53;;;;;;;7.72;5.18;;;;;;;;;;4987044;28;20062;-76
2021/05/07 22:54:18;;;;;;;7.82;5.53;;;;;;;;;;4987328;28;20320;-76
2021/05/07 22:56:44;;;;;;;8.18;5.18;;;;;;;;;;4987758;28;20083;-77
2021/05/07 22:59:10;;;;;;;7.80;4.45;;;;;;;;;;4986989;28;20042;-76
2021/05/07 23:01:36;;;;;;;8.32;4.65;;;;;;;;;;5003776;28;20021;-76
2021/05/07 23:04:03;;;;;;;6.57;4.97;;;;;;;;;;4999279;28;20017;-76
2021/05/07 23:06:29;;;;;;;7.68;4.47;;;;;;;;;;4986946;28;20058;-76
2021/05/07 23:08:55;;;;;;;7.70;4.15;;;;;;;;;;4987562;28;20430;-76
2021/05/07 23:11:21;;;;;;;6.15;4.38;;;;;;;;;;4969040;28;20030;-76
2021/05/07 23:13:47;;;;;;;7.03;5.05;;;;;;;;;;4986783;28;20514;-77
